Time;durP1;ratioP1;P1;durP2;ratioP2;P2;SDS_P1;SDS_P2;PMS_P1;PMS_P2;Temp;Humidity;BMP_temperature;BMP_pressure;BME280_temperature;BME280_humidity;BME280_pressure;Samples;Min_cycle;Max_cycle;Signal;HPM_P1;HPM_P2
2021/12/08 00:02:47;;;;;;;50.63;20.65;;;;;;;-2.79;100.00;100001.41;6717194;26;34604;-67
2021/12/08 00:05:51;;;;;;;57.30;25.52;;;;;;;-2.56;100.00;100006.94;6717322;26;34636;-68
2021/12/08 00:09:35;;;;;;;54.20;22.87;;;;;;;-2.58;100.00;99999.28;6717314;26;33818;-67
2021/12/08 00:15:50;;;;;;;52.83;22.75;;;;;;;-2.40;100.00;99998.12;6717139;26;34108;-68
2021/12/08 00:18:59;;;;;;;52.53;23.35;;;;;;;-2.50;100.00;99997.03;6717169;26;34729;-68
2021/12/08 00:22:02;;;;;;;54.88;23.15;;;;;;;-2.50;100.00;100002.22;6697726;26;34444;-68
2021/12/08 00:25:06;;;;;;;52.08;22.10;;;;;;;-2.56;100.00;100019.94;6717240;26;34023;-67
2021/12/08 00:28:09;;;;;;;56.75;21.85;;;;;;;-2.77;100.00;100017.75;6717077;26;33980;-68
2021/12/08 00:31:13;;;;;;;48.92;20.95;;;;;;;-2.71;100.00;100022.53;6717106;26;33990;-67
2021/12/08 00:34:15;;;;;;;51.85;21.25;;;;;;;-2.79;100.00;100019.59;6717619;26;33809;-68
2021/12/08 00:37:18;;;;;;;53.95;21.40;;;;;;;-2.68;100.00;100026.72;6716913;26;35021;-67
2021/12/08 00:40:22;;;;;;;53.75;21.60;;;;;;;-2.56;100.00;100010.37;6717437;26;34068;-68
2021/12/08 00:43:25;;;;;;;56.58;23.98;;;;;;;-2.47;100.00;100017.59;6717208;26;33797;-67
2021/12/08 00:46:28;;;;;;;54.33;23.25;;;;;;;-2.57;100.00;100024.31;6717010;26;33939;-68
2021/12/08 00:49:31;;;;;;;59.33;24.67;;;;;;;-2.81;100.00;100023.22;6697603;26;34064;-67
2021/12/08 00:52:34;;;;;;;50.70;23.52;;;;;;;-2.64;100.00;100025.62;6717036;26;33712;-67
2021/12/08 00:55:37;;;;;;;55.05;25.02;;;;;;;-2.68;100.00;100030.16;6716946;26;34700;-67
2021/12/08 00:58:40;;;;;;;57.30;23.58;;;;;;;-2.83;100.00;100035.44;6697161;26;34266;-68
2021/12/08 01:02:04;;;;;;;55.15;23.80;;;;;;;-2.90;100.00;100039.31;6716979;26;34622;-68
2021/12/08 01:05:09;;;;;;;59.40;26.30;;;;;;;-2.96;100.00;100043.13;6717989;26;34452;-67
2021/12/08 01:08:13;;;;;;;60.40;25.02;;;;;;;-2.95;100.00;100042.19;6717846;26;34005;-67
2021/12/08 01:11:19;;;;;;;51.33;24.27;;;;;;;-2.81;100.00;100036.19;6718007;26;34528;-68
2021/12/08 01:14:22;;;;;;;58.10;25.35;;;;;;;-2.79;100.00;100034.31;6698166;26;33869;-67
2021/12/08 01:17:25;;;;;;;57.75;25.95;;;;;;;-2.61;100.00;100027.19;6718013;26;34052;-67
2021/12/08 01:20:28;;;;;;;56.65;25.20;;;;;;;-2.50;100.00;100035.16;6698121;26;34192;-68
2021/12/08 01:23:32;;;;;;;55.10;24.67;;;;;;;-2.52;100.00;100018.84;6717695;26;32792;-67
2021/12/08 01:26:35;;;;;;;57.53;25.48;;;;;;;-2.69;100.00;100025.06;6717774;26;33998;-67
2021/12/08 01:29:38;;;;;;;56.90;24.00;;;;;;;-2.76;100.00;100013.37;6717765;26;34098;-68
2021/12/08 01:32:41;;;;;;;60.55;25.35;;;;;;;-2.74;100.00;100011.53;6718001;26;34527;-67
2021/12/08 01:35:44;;;;;;;57.35;24.55;;;;;;;-2.78;100.00;99999.66;6717676;26;33983;-68
2021/12/08 01:38:47;;;;;;;60.95;25.27;;;;;;;-2.81;100.00;99994.66;6718347;26;34272;-68
2021/12/08 01:41:52;;;;;;;55.10;25.10;;;;;;;-2.85;100.00;99998.34;6717793;26;34158;-67
2021/12/08 01:48:19;;;;;;;62.00;26.23;;;;;;;-3.07;100.00;99985.84;6717854;26;34097;-67
2021/12/08 01:51:25;;;;;;;56.40;25.00;;;;;;;-2.91;100.00;99980.56;6717930;26;33929;-68
2021/12/08 01:54:28;;;;;;;55.15;21.75;;;;;;;-2.82;100.00;99982.59;6717611;26;34667;-68
2021/12/08 01:57:30;;;;;;;50.55;20.33;;;;;;;-2.70;100.00;99982.69;6717789;26;33813;-68
2021/12/08 02:00:33;;;;;;;51.03;20.08;;;;;;;-2.76;100.00;99985.63;6717129;26;34696;-67
2021/12/08 02:03:37;;;;;;;54.55;21.80;;;;;;;-2.82;100.00;99987.78;6697970;26;34467;-68
2021/12/08 02:06:45;;;;;;;53.05;22.35;;;;;;;-2.90;100.00;99982.22;6717713;26;34267;-68
2021/12/08 02:09:47;;;;;;;59.92;23.33;;;;;;;-2.98;100.00;99974.06;6716988;26;33211;-67
2021/12/08 02:12:51;;;;;;;59.10;21.75;;;;;;;-3.09;100.00;99977.28;6717289;26;34503;-68
2021/12/08 02:15:53;;;;;;;59.47;23.58;;;;;;;-3.27;100.00;99968.84;6717712;26;34700;-68
2021/12/08 02:18:58;;;;;;;55.08;23.85;;;;;;;-3.43;100.00;99980.19;6717787;26;34061;-68
2021/12/08 02:22:01;;;;;;;53.58;22.98;;;;;;;-3.53;100.00;99966.94;6717515;26;34683;-67
2021/12/08 02:25:08;;;;;;;56.92;23.65;;;;;;;-3.58;100.00;99950.81;6717711;26;33814;-68
2021/12/08 02:28:11;;;;;;;58.95;22.52;;;;;;;-3.57;100.00;99947.31;6697889;26;34052;-67
2021/12/08 02:31:20;;;;;;;60.28;23.17;;;;;;;-3.64;100.00;99933.06;6697723;26;35327;-67
2021/12/08 02:48:00;;;;;;;60.33;23.67;;;;;;;-3.64;100.00;99954.63;6717593;26;34272;-67
2021/12/08 02:51:03;;;;;;;51.88;22.42;;;;;;;-3.71;100.00;99961.06;6717657;26;35234;-68
2021/12/08 02:54:06;;;;;;;56.15;23.10;;;;;;;-3.76;100.00;99973.47;6718009;26;34483;-68
2021/12/08 02:57:10;;;;;;;57.75;24.65;;;;;;;-3.72;100.00;99972.34;6717849;26;34436;-67
2021/12/08 03:00:16;;;;;;;55.33;23.87;;;;;;;-3.33;100.00;99977.00;6717605;26;35140;-67
2021/12/08 03:03:19;;;;;;;58.22;23.62;;;;;;;-3.00;100.00;99989.72;6717339;26;33997;-68
2021/12/08 03:06:23;;;;;;;61.10;26.65;;;;;;;-2.87;100.00;99988.06;6717981;26;34152;-67
2021/12/08 03:09:26;;;;;;;62.03;26.83;;;;;;;-3.01;100.00;99984.63;6717428;26;34627;-68
2021/12/08 03:12:30;;;;;;;67.70;27.77;;;;;;;-3.10;100.00;99981.66;6717517;26;34423;-68
2021/12/08 03:15:34;;;;;;;62.62;28.42;;;;;;;-3.05;100.00;99981.41;6697755;26;33935;-68
2021/12/08 03:18:41;;;;;;;61.20;28.10;;;;;;;-3.15;100.00;99975.91;6717969;26;34464;-68
2021/12/08 03:21:44;;;;;;;65.90;27.45;;;;;;;-3.19;100.00;99983.94;6697748;26;33857;-68
2021/12/08 03:24:48;;;;;;;58.75;25.37;;;;;;;-3.30;100.00;99974.22;6717228;26;33882;-68
2021/12/08 03:28:04;;;;;;;59.75;26.17;;;;;;;-3.18;100.00;99981.28;6717624;26;34062;-68
2021/12/08 03:31:12;;;;;;;66.75;28.52;;;;;;;-3.08;100.00;99979.81;6717353;26;34384;-68
2021/12/08 03:34:18;;;;;;;60.42;27.40;;;;;;;-3.16;100.00;99974.25;6697540;26;33960;-68
2021/12/08 03:37:32;;;;;;;62.97;27.70;;;;;;;-3.32;100.00;99970.87;6717284;26;34315;-68
2021/12/08 03:40:35;;;;;;;60.12;27.75;;;;;;;-3.52;100.00;99963.44;6697397;26;33952;-68
2021/12/08 03:43:38;;;;;;;63.15;28.23;;;;;;;-3.65;100.00;99965.06;6717228;26;34085;-68
2021/12/08 03:46:42;;;;;;;56.95;27.02;;;;;;;-3.72;100.00;99968.94;6697764;26;34045;-68
2021/12/08 03:49:47;;;;;;;54.42;24.85;;;;;;;-3.54;100.00;99968.72;6717358;26;34771;-68
2021/12/08 03:52:50;;;;;;;52.67;24.45;;;;;;;-3.68;100.00;99968.66;6697409;26;33981;-68
2021/12/08 03:55:54;;;;;;;54.38;24.08;;;;;;;-3.78;100.00;99957.19;6717385;26;34071;-69
2021/12/08 03:58:57;;;;;;;59.47;25.73;;;;;;;-3.88;100.00;99961.22;6717345;26;34465;-68
2021/12/08 04:01:59;;;;;;;57.25;25.35;;;;;;;-3.99;100.00;99976.53;6717190;26;34599;-69
2021/12/08 04:05:04;;;;;;;56.78;25.75;;;;;;;-4.09;100.00;99983.97;6717277;26;35489;-69
2021/12/08 04:08:15;;;;;;;60.78;25.92;;;;;;;-4.09;100.00;99983.13;6697723;26;33969;-68
2021/12/08 04:11:18;;;;;;;58.72;26.35;;;;;;;-4.08;100.00;99993.41;6717300;26;33725;-68
2021/12/08 04:14:26;;;;;;;59.65;26.42;;;;;;;-4.07;100.00;99989.06;6697260;26;34187;-68
2021/12/08 04:17:36;;;;;;;58.60;25.85;;;;;;;-4.08;100.00;99993.41;6698363;26;34232;-69
2021/12/08 04:20:43;;;;;;;58.80;25.88;;;;;;;-4.06;100.00;99985.53;6717584;26;34023;-68
2021/12/08 04:23:46;;;;;;;65.75;26.87;;;;;;;-4.02;100.00;99984.47;6697408;26;33976;-69
2021/12/08 04:27:04;;;;;;;60.60;27.37;;;;;;;-4.05;100.00;99985.47;6717415;26;34850;-69
2021/12/08 04:30:15;;;;;;;61.70;26.80;;;;;;;-4.06;100.00;99993.31;6717074;26;34639;-69
2021/12/08 04:33:18;;;;;;;60.90;27.15;;;;;;;-3.98;100.00;99981.62;6697296;26;34665;-69
2021/12/08 04:36:24;;;;;;;59.08;26.85;;;;;;;-3.91;100.00;99978.66;6716234;26;35103;-69
2021/12/08 04:39:55;;;;;;;58.70;26.40;;;;;;;-3.69;100.00;99985.16;6717125;26;33719;-69
2021/12/08 04:43:20;;;;;;;69.95;29.87;;;;;;;-3.83;100.00;99974.75;6717033;26;34020;-69
2021/12/08 04:53:12;;;;;;;65.05;26.98;;;;;;;-3.93;100.00;99983.13;6717089;26;34023;-69
2021/12/08 05:06:42;;;;;;;67.00;28.25;;;;;;;-3.95;100.00;99998.75;6717179;26;34284;-69
2021/12/08 05:09:47;;;;;;;67.18;27.27;;;;;;;-3.74;100.00;99991.53;6716379;26;34754;-69
2021/12/08 05:12:52;;;;;;;61.30;27.23;;;;;;;-3.86;100.00;99994.78;6716489;26;34509;-70
2021/12/08 05:15:56;;;;;;;65.00;27.42;;;;;;;-3.93;100.00;99991.72;6716835;26;34211;-70
2021/12/08 05:19:02;;;;;;;63.58;27.15;;;;;;;-3.91;100.00;99997.66;6717021;26;34683;-70
2021/12/08 05:22:12;;;;;;;58.83;27.08;;;;;;;-3.78;100.00;99984.84;6716495;26;34661;-70
2021/12/08 05:25:21;;;;;;;69.72;28.20;;;;;;;-3.91;100.00;99982.09;6716476;26;34131;-70
2021/12/08 05:28:26;;;;;;;60.33;26.60;;;;;;;-3.96;100.00;99974.59;6717004;26;34648;-70
2021/12/08 05:31:32;;;;;;;65.57;29.98;;;;;;;-3.80;100.00;99979.75;6716621;26;35687;-70
2021/12/08 05:34:40;;;;;;;61.80;27.95;;;;;;;-3.84;100.00;99990.38;6716702;26;34042;-71
2021/12/08 05:37:43;;;;;;;65.32;27.10;;;;;;;-3.97;100.00;99982.47;6716469;26;34132;-70
2021/12/08 05:41:02;;;;;;;65.85;26.77;;;;;;;-4.00;100.00;99982.62;6716819;26;34009;-70
2021/12/08 05:44:06;;;;;;;66.80;28.08;;;;;;;-4.13;100.00;99963.50;6716546;26;33861;-70
2021/12/08 05:47:15;;;;;;;60.65;27.45;;;;;;;-4.16;100.00;99974.84;6716208;26;34804;-70
2021/12/08 05:50:27;;;;;;;64.95;28.55;;;;;;;-4.09;100.00;99971.03;6717568;26;34460;-70
2021/12/08 05:53:32;;;;;;;61.33;27.90;;;;;;;-4.16;100.00;99966.25;6717788;26;33864;-71
2021/12/08 05:56:35;;;;;;;63.33;28.30;;;;;;;-4.22;100.00;99970.03;6697530;26;33928;-70
2021/12/08 05:59:40;;;;;;;60.67;27.08;;;;;;;-4.30;100.00;99979.13;6718477;26;33983;-71
2021/12/08 06:02:43;;;;;;;64.62;30.23;;;;;;;-4.35;100.00;99970.78;6697519;26;34444;-70
2021/12/08 06:05:49;;;;;;;57.72;26.00;;;;;;;-4.13;100.00;99981.62;6717687;26;34420;-72
2021/12/08 06:08:53;;;;;;;66.75;27.95;;;;;;;-4.21;100.00;99989.81;6717322;26;33919;-70
2021/12/08 06:11:57;;;;;;;66.85;27.80;;;;;;;-4.25;100.00;99982.31;6717800;26;34804;-72
2021/12/08 06:15:00;;;;;;;64.93;27.92;;;;;;;-4.27;100.00;99986.75;6717116;26;34673;-72
2021/12/08 06:18:04;;;;;;;69.60;28.90;;;;;;;-4.28;100.00;99988.50;6717980;26;34030;-71
2021/12/08 06:21:12;;;;;;;62.88;27.37;;;;;;;-4.03;100.00;99986.22;6717131;26;34397;-72
2021/12/08 06:24:16;;;;;;;65.72;27.85;;;;;;;-4.15;100.00;99991.22;6716857;26;34450;-71
2021/12/08 06:27:19;;;;;;;61.97;25.85;;;;;;;-4.22;100.00;99997.69;6716214;26;34613;-72
2021/12/08 06:30:26;;;;;;;61.28;26.87;;;;;;;-4.30;100.00;99998.09;6716618;26;34513;-72
2021/12/08 06:33:30;;;;;;;61.55;26.05;;;;;;;-4.00;100.00;100000.75;6716697;26;34751;-72
2021/12/08 06:36:57;;;;;;;66.93;27.75;;;;;;;-3.88;100.00;99994.06;6717481;26;34677;-72
2021/12/08 06:40:12;;;;;;;72.45;32.15;;;;;;;-3.76;100.00;99991.59;6717424;26;32968;-72
2021/12/08 06:43:19;;;;;;;66.53;32.25;;;;;;;-3.75;100.00;99989.84;6716931;26;34287;-71
2021/12/08 06:46:24;;;;;;;74.43;32.63;;;;;;;-3.77;100.00;99991.69;6717102;26;33989;-72
2021/12/08 06:49:28;;;;;;;68.62;30.77;;;;;;;-3.78;100.00;99987.44;6716509;26;34052;-72
2021/12/08 06:52:36;;;;;;;60.88;28.17;;;;;;;-3.73;100.00;99995.78;6696765;26;34569;-72
2021/12/08 06:56:08;;;;;;;70.70;29.20;;;;;;;-3.81;100.00;99995.38;6716389;26;34178;-72
2021/12/08 06:59:17;;;;;;;65.22;28.58;;;;;;;-3.83;100.00;99999.81;6701399;26;34395;-71
2021/12/08 07:02:46;;;;;;;70.12;28.85;;;;;;;-3.63;100.00;99991.75;6716789;26;34435;-70
2021/12/08 07:06:04;;;;;;;65.53;28.00;;;;;;;-3.76;100.00;99989.00;6716280;26;33976;-72
2021/12/08 07:09:09;;;;;;;71.00;29.73;;;;;;;-3.76;100.00;99993.34;6717090;26;34706;-72
2021/12/08 07:12:26;;;;;;;70.78;29.80;;;;;;;-3.74;100.00;99989.78;6716694;26;34381;-72
2021/12/08 07:15:45;;;;;;;64.15;25.35;;;;;;;-3.68;100.00;99983.41;6716872;26;34202;-72
2021/12/08 07:18:54;;;;;;;65.43;25.25;;;;;;;-3.64;100.00;99983.13;6716891;26;34470;-72
2021/12/08 07:21:58;;;;;;;60.75;24.45;;;;;;;-3.60;100.00;99986.37;6716985;26;35332;-72
2021/12/08 07:25:04;;;;;;;62.60;25.40;;;;;;;-3.54;100.00;100002.44;6716587;26;34413;-72
2021/12/08 07:28:08;;;;;;;60.75;25.08;;;;;;;-3.40;100.00;99987.81;6716532;26;34583;-72
2021/12/08 07:31:20;;;;;;;62.88;24.92;;;;;;;-3.36;100.00;99977.19;6716283;26;33855;-71
2021/12/08 07:34:25;;;;;;;59.53;24.12;;;;;;;-3.21;100.00;99988.41;6715941;26;34470;-71
2021/12/08 07:37:32;;;;;;;59.70;24.37;;;;;;;-3.21;100.00;99999.63;6716236;26;33900;-70
2021/12/08 07:40:43;;;;;;;60.40;25.15;;;;;;;-3.23;100.00;99987.66;6697103;26;34365;-70
2021/12/08 07:43:51;;;;;;;;;;;;;;;-3.16;100.00;99992.41;6697309;26;34538;-69
2021/12/08 07:47:07;;;;;;;60.92;28.23;;;;;;;-3.14;100.00;99997.50;6716587;26;34439;-69
2021/12/08 07:50:25;;;;;;;59.65;25.45;;;;;;;-3.08;100.00;99994.53;6717038;26;34648;-70
2021/12/08 07:53:29;;;;;;;59.20;25.08;;;;;;;-3.05;100.00;99991.78;6716954;26;33991;-71
2021/12/08 07:56:35;;;;;;;67.10;25.85;;;;;;;-2.96;100.00;99996.41;6697385;26;33748;-72
2021/12/08 07:59:41;;;;;;;61.03;26.12;;;;;;;-2.75;100.00;100002.06;6717285;26;33975;-72
2021/12/08 08:02:45;;;;;;;67.78;26.23;;;;;;;-2.78;100.00;99999.66;6717700;26;34129;-72
2021/12/08 08:05:49;;;;;;;68.90;27.10;;;;;;;-2.83;100.00;99993.91;6717319;26;34463;-71
2021/12/08 08:08:52;;;;;;;71.28;27.65;;;;;;;-2.79;100.00;99995.38;6716953;26;33743;-72
2021/12/08 08:12:00;;;;;;;70.68;30.05;;;;;;;-2.75;100.00;99997.69;6717362;26;35358;-71
2021/12/08 08:15:08;;;;;;;65.28;28.80;;;;;;;-2.67;100.00;100007.63;6716884;26;34197;-70
2021/12/08 08:18:14;;;;;;;74.20;31.50;;;;;;;-2.61;100.00;100004.62;6716695;26;34292;-70
2021/12/08 08:21:21;;;;;;;61.42;25.20;;;;;;;-2.52;100.00;99995.47;6716676;26;33923;-71
2021/12/08 08:24:24;;;;;;;64.80;27.00;;;;;;;-2.43;100.00;100000.94;6697169;26;34209;-71
2021/12/08 08:27:27;;;;;;;68.75;25.60;;;;;;;-2.39;100.00;100005.00;6717115;26;33003;-71
2021/12/08 08:30:36;;;;;;;55.55;25.37;;;;;;;-2.29;100.00;100000.06;6696427;26;34138;-70
2021/12/08 08:33:41;;;;;;;64.82;25.37;;;;;;;-2.20;100.00;100007.28;6716216;26;34453;-69
2021/12/08 08:36:57;;;;;;;57.88;24.33;;;;;;;-2.17;100.00;100012.28;6715483;26;34125;-71
2021/12/08 08:40:18;;;;;;;57.75;24.80;;;;;;;-2.13;100.00;100015.53;6715349;26;34088;-69
2021/12/08 08:43:22;;;;;;;62.92;25.55;;;;;;;-2.03;100.00;100007.03;6715565;26;34543;-69
2021/12/08 08:46:35;;;;;;;59.15;24.95;;;;;;;-1.97;100.00;100013.63;6715251;26;34456;-69
2021/12/08 08:49:39;;;;;;;64.95;25.20;;;;;;;-1.85;100.00;100015.44;6715499;26;34667;-71
2021/12/08 08:52:47;;;;;;;61.17;25.88;;;;;;;-1.79;100.00;100023.66;6695329;26;33884;-69
2021/12/08 08:56:21;;;;;;;62.80;24.60;;;;;;;-1.70;100.00;100011.03;6715960;26;33912;-70
2021/12/08 08:59:30;;;;;;;64.15;25.10;;;;;;;-1.67;100.00;100014.25;6714989;26;33916;-69
2021/12/08 09:02:38;;;;;;;59.03;26.10;;;;;;;-1.57;100.00;100014.50;6715550;26;33942;-69
2021/12/08 09:05:47;;;;;;;64.45;24.33;;;;;;;-1.46;100.00;100015.47;6715268;26;34503;-69
2021/12/08 09:08:50;;;;;;;59.03;25.62;;;;;;;-1.35;100.00;100001.72;6715606;26;33767;-69
2021/12/08 09:12:22;;;;;;;64.45;25.60;;;;;;;-1.34;100.00;100006.84;6715610;26;34515;-69
2021/12/08 09:15:37;;;;;;;63.87;25.95;;;;;;;-1.23;100.00;100005.31;6705100;26;34628;-69
2021/12/08 09:18:50;;;;;;;68.50;27.00;;;;;;;-1.14;100.00;99992.50;6716936;26;34355;-70
2021/12/08 09:22:04;;;;;;;56.30;24.98;;;;;;;-1.06;100.00;99991.97;6696169;26;34218;-70
2021/12/08 09:25:40;;;;;;;60.15;24.77;;;;;;;-0.93;100.00;99992.84;6717542;26;34956;-69
2021/12/08 09:28:52;;;;;;;63.97;25.90;;;;;;;-0.85;100.00;99979.28;6717502;26;33896;-69
2021/12/08 09:32:08;;;;;;;54.08;23.92;;;;;;;-0.72;100.00;99972.28;6697585;26;34613;-69
2021/12/08 09:35:41;;;;;;;61.78;24.52;;;;;;;-0.60;100.00;99979.25;6717243;26;33762;-69
2021/12/08 09:38:52;;;;;;;54.78;24.85;;;;;;;-0.51;100.00;99976.00;6706633;26;34180;-69
2021/12/08 09:42:06;;;;;;;59.42;23.80;;;;;;;-0.41;100.00;99976.19;6717348;26;34458;-69
2021/12/08 09:45:15;;;;;;;61.03;24.17;;;;;;;-0.29;100.00;99980.53;6717605;26;33908;-68
2021/12/08 09:48:18;;;;;;;55.67;25.20;;;;;;;-0.20;100.00;99964.25;6717353;26;34476;-68
2021/12/08 09:51:23;;;;;;;54.03;24.73;;;;;;;-0.11;100.00;99955.75;6717567;26;33910;-68
2021/12/08 09:54:27;;;;;;;54.83;25.42;;;;;;;-0.16;100.00;99960.47;6697701;26;34863;-68
2021/12/08 09:57:32;;;;;;;54.08;25.35;;;;;;;-0.09;100.00;99957.31;6717685;26;34280;-69
2021/12/08 10:00:39;;;;;;;58.30;24.27;;;;;;;0.03;100.00;99966.03;6717936;26;33213;-68
2021/12/08 10:03:43;;;;;;;57.88;25.33;;;;;;;0.04;100.00;99952.03;6717177;26;33929;-68
2021/12/08 10:06:49;;;;;;;61.63;25.40;;;;;;;0.10;100.00;99946.38;6717249;26;34452;-68
2021/12/08 10:09:53;;;;;;;55.17;25.15;;;;;;;0.17;100.00;99950.19;6717330;26;33704;-68
2021/12/08 10:12:56;;;;;;;61.17;26.02;;;;;;;0.29;100.00;99941.47;6697337;26;33978;-68
2021/12/08 10:15:59;;;;;;;54.85;24.77;;;;;;;0.41;100.00;99937.12;6717278;26;34514;-68
2021/12/08 10:19:04;;;;;;;61.00;26.20;;;;;;;0.46;100.00;99934.16;6717127;26;34894;-68
2021/12/08 10:22:22;;;;;;;54.80;24.15;;;;;;;0.51;100.00;99926.81;6696452;26;34050;-68
2021/12/08 10:25:24;;;;;;;50.25;23.45;;;;;;;0.76;97.83;99924.03;6716820;26;33966;-68
2021/12/08 10:28:38;;;;;;;61.42;24.27;;;;;;;0.80;97.38;99915.84;6717721;26;34500;-69
2021/12/08 10:31:48;;;;;;;56.17;26.42;;;;;;;0.96;96.24;99912.06;6716987;26;34003;-68
2021/12/08 10:35:04;;;;;;;60.45;26.35;;;;;;;0.98;95.65;99908.38;6716936;26;34088;-68
2021/12/08 10:38:07;;;;;;;55.22;25.02;;;;;;;1.06;95.79;99906.03;6717077;26;34758;-69
2021/12/08 10:41:10;;;;;;;60.95;26.33;;;;;;;1.26;94.69;99912.28;6716967;26;34040;-69
2021/12/08 10:44:12;;;;;;;58.38;27.10;;;;;;;1.20;93.86;99908.38;6718218;26;34178;-68
2021/12/08 10:47:19;;;;;;;56.08;25.30;;;;;;;1.31;93.80;99908.34;6699221;26;33855;-67
2021/12/08 10:57:22;;;;;;;56.47;26.35;;;;;;;1.48;91.08;99893.13;6717222;26;34234;-69
2021/12/08 11:00:32;;;;;;;59.00;27.33;;;;;;;1.41;91.93;99891.94;6717254;26;34353;-69
2021/12/08 11:03:39;;;;;;;56.97;25.65;;;;;;;1.44;92.03;99892.56;6698147;26;34119;-69
2021/12/08 11:06:43;;;;;;;53.00;23.55;;;;;;;1.42;91.92;99894.44;6717414;26;34146;-69
2021/12/08 11:09:46;;;;;;;66.20;26.98;;;;;;;1.48;91.96;99880.06;6697564;26;35056;-69
2021/12/08 11:12:50;;;;;;;62.17;27.00;;;;;;;1.34;91.83;99875.94;6717167;26;34046;-69
2021/12/08 11:16:04;;;;;;;58.25;26.40;;;;;;;1.28;93.24;99879.03;6717148;26;33941;-69
2021/12/08 11:19:20;;;;;;;61.25;27.77;;;;;;;1.31;93.39;99868.31;6717699;26;33707;-69
2021/12/08 11:22:30;;;;;;;62.00;28.27;;;;;;;1.43;92.16;99862.13;6715734;26;34102;-69
2021/12/08 11:25:39;;;;;;;52.53;25.85;;;;;;;1.60;91.67;99863.37;6716891;26;34418;-69
2021/12/08 11:28:43;;;;;;;65.68;27.08;;;;;;;1.65;90.53;99863.84;6717008;26;34082;-69
2021/12/08 11:31:50;;;;;;;57.47;24.70;;;;;;;1.45;91.18;99856.78;6716356;26;34052;-69
2021/12/08 11:34:55;;;;;;;57.10;23.85;;;;;;;1.58;92.22;99860.91;6715601;26;34647;-70
2021/12/08 11:37:59;;;;;;;53.33;23.73;;;;;;;1.76;89.83;99863.81;6696347;26;34123;-69
2021/12/08 11:41:09;;;;;;;59.92;25.08;;;;;;;1.64;90.02;99863.03;6716975;26;34196;-69
2021/12/08 11:44:17;;;;;;;53.67;24.77;;;;;;;1.79;90.26;99863.59;6716614;26;34115;-69
2021/12/08 11:47:35;;;;;;;44.90;22.30;;;;;;;1.87;89.77;99863.78;6698755;26;34551;-69
2021/12/08 11:50:38;;;;;;;53.03;24.12;;;;;;;1.92;89.12;99856.37;6697044;26;35021;-69
2021/12/08 11:53:41;;;;;;;60.67;24.45;;;;;;;2.07;88.73;99857.75;6717133;26;34064;-69
2021/12/08 11:56:44;;;;;;;54.65;22.52;;;;;;;2.15;88.67;99855.31;6717063;26;33707;-69
2021/12/08 11:59:58;;;;;;;54.00;23.15;;;;;;;1.89;87.52;99855.81;6717273;26;34905;-69
2021/12/08 12:03:09;;;;;;;56.15;22.87;;;;;;;2.27;85.49;99855.28;6716012;26;34335;-69
2021/12/08 12:06:12;;;;;;;58.78;24.20;;;;;;;2.27;85.01;99855.28;6717003;26;34231;-69
2021/12/08 12:09:14;;;;;;;57.90;24.83;;;;;;;2.37;84.01;99850.94;6716818;26;34383;-69
2021/12/08 12:12:27;;;;;;;52.78;24.83;;;;;;;2.46;83.93;99847.53;6717274;26;33978;-69
2021/12/08 12:15:30;;;;;;;59.55;26.23;;;;;;;2.96;82.38;99838.78;6715774;26;34642;-69
2021/12/08 12:18:33;;;;;;;55.88;25.52;;;;;;;2.78;82.15;99840.37;6716866;26;34175;-69
2021/12/08 12:21:58;;;;;;;52.78;24.45;;;;;;;2.76;84.01;99844.91;6717159;26;34451;-70
2021/12/08 12:25:34;;;;;;;57.80;25.17;;;;;;;2.57;84.63;99832.56;6716853;26;34004;-69
2021/12/08 12:28:42;;;;;;;59.35;25.62;;;;;;;2.62;83.84;99838.22;6716991;26;34491;-69
2021/12/08 12:31:52;;;;;;;57.15;24.92;;;;;;;2.62;84.17;99833.00;6716752;26;34460;-69
2021/12/08 12:35:16;;;;;;;57.85;24.87;;;;;;;2.36;85.77;99829.16;6716908;26;34675;-69
2021/12/08 12:38:36;;;;;;;52.47;22.23;;;;;;;2.69;84.05;99817.59;6717000;26;33986;-67
2021/12/08 12:41:38;;;;;;;51.35;22.85;;;;;;;2.76;83.80;99823.16;6678758;26;33645;-67
2021/12/08 12:44:45;;;;;;;54.85;23.60;;;;;;;2.63;85.93;99823.34;6716777;26;34408;-67
2021/12/08 12:48:07;;;;;;;46.60;21.75;;;;;;;2.26;87.04;99820.41;6716878;26;35361;-66
2021/12/08 12:51:14;;;;;;;54.38;22.90;;;;;;;2.24;87.99;99818.87;6697282;26;34016;-68
2021/12/08 12:54:32;;;;;;;48.72;22.10;;;;;;;2.29;87.63;99816.69;6716396;26;34284;-68
2021/12/08 12:58:01;;;;;;;47.15;20.80;;;;;;;2.30;88.44;99815.75;6716368;26;34504;-68
2021/12/08 13:01:09;;;;;;;46.40;20.60;;;;;;;2.25;88.12;99810.91;6701917;26;34532;-68
2021/12/08 13:04:21;;;;;;;43.65;19.60;;;;;;;2.26;88.68;99809.94;6696490;26;34480;-67
2021/12/08 13:07:26;;;;;;;44.55;19.60;;;;;;;2.13;89.26;99799.66;6716235;26;33835;-68
2021/12/08 13:10:38;;;;;;;40.15;19.42;;;;;;;2.19;89.03;99798.31;6716634;26;34010;-68
2021/12/08 13:13:46;;;;;;;37.65;17.65;;;;;;;2.23;88.96;99793.69;6716749;26;35450;-68
2021/12/08 13:17:20;;;;;;;37.15;17.08;;;;;;;2.12;89.46;99786.72;6716449;26;34560;-68
2021/12/08 13:20:25;;;;;;;41.92;17.67;;;;;;;2.02;89.28;99799.75;6716906;26;33778;-68
2021/12/08 13:23:30;;;;;;;43.97;18.52;;;;;;;2.06;89.80;99801.16;6716919;26;34009;-67
2021/12/08 13:26:49;;;;;;;38.10;19.35;;;;;;;2.06;90.07;99800.31;6696911;26;34154;-67
2021/12/08 13:30:08;;;;;;;36.97;16.95;;;;;;;2.13;89.20;99791.81;6716384;26;34538;-66
2021/12/08 13:33:26;;;;;;;40.25;17.70;;;;;;;2.15;89.07;99795.13;6716530;26;34057;-66
2021/12/08 13:36:39;;;;;;;38.90;16.98;;;;;;;2.15;88.98;99795.13;6716089;26;34299;-66
2021/12/08 13:39:43;;;;;;;41.28;16.42;;;;;;;1.99;90.08;99796.53;6716245;26;34663;-66
2021/12/08 13:43:07;;;;;;;39.92;17.15;;;;;;;1.93;91.34;99795.28;6715166;26;34546;-66
2021/12/08 13:46:30;;;;;;;37.63;17.55;;;;;;;1.97;91.72;99801.06;6715828;26;34322;-66
2021/12/08 13:49:52;;;;;;;38.63;17.25;;;;;;;1.97;91.34;99806.31;6695401;26;33772;-66
2021/12/08 13:53:06;;;;;;;41.42;17.83;;;;;;;1.91;92.17;99802.41;6714852;26;34317;-68
2021/12/08 13:56:10;;;;;;;36.40;17.30;;;;;;;1.87;92.03;99810.63;6695364;26;34191;-68
2021/12/08 13:59:41;;;;;;;38.42;16.48;;;;;;;1.89;92.14;99808.75;6715219;26;34211;-68
2021/12/08 14:02:50;;;;;;;41.65;17.83;;;;;;;1.79;92.64;99805.22;6716071;26;34451;-68
2021/12/08 14:05:58;;;;;;;37.10;17.77;;;;;;;1.73;93.00;99806.56;6696225;26;34630;-68
2021/12/08 14:09:01;;;;;;;39.35;17.55;;;;;;;1.62;94.11;99806.59;6716214;26;34209;-66
2021/12/08 14:12:20;;;;;;;43.72;18.98;;;;;;;1.67;93.48;99799.19;6630147;26;34647;-68
2021/12/08 14:15:32;;;;;;;38.80;16.67;;;;;;;1.60;93.87;99803.25;6630496;26;33929;-68
2021/12/08 14:18:38;;;;;;;41.42;18.08;;;;;;;1.47;94.84;99803.44;6630463;26;33608;-67
2021/12/08 14:21:48;;;;;;;37.67;18.35;;;;;;;1.58;94.50;99794.72;6630822;26;34287;-66
2021/12/08 14:25:06;;;;;;;36.33;18.30;;;;;;;1.32;95.51;99799.44;6613672;26;34111;-68
2021/12/08 14:28:38;;;;;;;43.45;18.70;;;;;;;1.20;97.27;99797.81;6629773;26;33859;-68
2021/12/08 14:31:44;;;;;;;40.90;19.27;;;;;;;0.93;98.64;99800.00;6630171;26;34005;-65
2021/12/08 14:34:47;;;;;;;45.42;19.42;;;;;;;0.74;99.64;99811.03;6630256;26;34152;-68
2021/12/08 14:38:00;;;;;;;47.03;19.55;;;;;;;0.62;100.00;99812.00;6629686;26;33967;-68
2021/12/08 14:41:28;;;;;;;50.97;18.98;;;;;;;0.61;100.00;99816.41;6641729;26;35259;-65
2021/12/08 14:44:35;;;;;;;41.83;20.15;;;;;;;0.63;100.00;99813.69;6716797;26;33780;-67
2021/12/08 14:47:42;;;;;;;39.65;18.95;;;;;;;0.43;100.00;99817.81;6696332;26;33993;-65
2021/12/08 14:50:45;;;;;;;46.95;18.77;;;;;;;0.29;100.00;99811.03;6717541;26;33821;-65
2021/12/08 14:53:48;;;;;;;41.17;17.73;;;;;;;0.42;100.00;99817.00;6697575;26;34803;-67
2021/12/08 14:57:02;;;;;;;38.10;16.27;;;;;;;0.25;100.00;99809.59;6716381;26;34765;-68
2021/12/08 15:00:23;;;;;;;31.30;16.10;;;;;;;0.16;100.00;99806.84;6716732;26;35006;-68
2021/12/08 15:03:26;;;;;;;40.70;16.42;;;;;;;0.23;100.00;99801.06;6696507;26;34432;-67
2021/12/08 15:06:29;;;;;;;37.38;15.70;;;;;;;0.75;99.75;99797.88;6714049;26;34057;-68
2021/12/08 15:09:33;;;;;;;33.58;14.32;;;;;;;0.53;100.00;99795.28;6716463;26;34732;-67